PHWJK EHEH-EHEH

Flight info

Callsign PHWJK
Flight time 0h 19m
Altitude 1000
Route LOCAL VFR
Aircraft DA40/L-SBDGRY/S

Departure

Time 2026-04-29 12:42
Airport Eindhoven Airport (EHEH)

Arrival

Time 2026-04-29 13:02
Airport Eindhoven Airport (EHEH)
Time Latitude Longitude Altitude Speed Heading
2026-04-29 12:26 51.45768 5.37748 68 ft 0 kts 55°
2026-04-29 12:30 51.45768 5.37749 68 ft 0 kts 55°
2026-04-29 12:33 51.45772 5.37769 66 ft 1 kts 117°
2026-04-29 12:34 51.45746 5.37734 68 ft 13 kts 233°
2026-04-29 12:34 51.45695 5.37620 65 ft 10 kts 233°
2026-04-29 12:34 51.45667 5.37555 67 ft 9 kts 238°
2026-04-29 12:34 51.45616 5.37407 66 ft 20 kts 235°
2026-04-29 12:35 51.45567 5.37263 67 ft 13 kts 244°
2026-04-29 12:35 51.45527 5.37128 68 ft 14 kts 242°
2026-04-29 12:35 51.45480 5.36983 69 ft 14 kts 242°
2026-04-29 12:35 51.45418 5.36894 63 ft 13 kts 213°
2026-04-29 12:36 51.45335 5.36813 66 ft 15 kts 205°
2026-04-29 12:36 51.45247 5.36821 64 ft 11 kts 176°
2026-04-29 12:36 51.45172 5.36841 66 ft 8 kts 170°
2026-04-29 12:36 51.45107 5.36857 69 ft 11 kts 174°
2026-04-29 12:37 51.45025 5.36886 65 ft 17 kts 162°
2026-04-29 12:37 51.44959 5.36909 69 ft 8 kts 171°
2026-04-29 12:37 51.44899 5.36925 68 ft 10 kts 170°
2026-04-29 12:37 51.44813 5.36961 65 ft 12 kts 147°
2026-04-29 12:38 51.44781 5.37001 69 ft 0 kts 132°
2026-04-29 12:40 51.44773 5.37017 64 ft 5 kts 127°
2026-04-29 12:40 51.44745 5.37075 66 ft 8 kts 129°
2026-04-29 12:41 51.44751 5.37160 68 ft 10 kts 33°
2026-04-29 12:41 51.44883 5.37309 69 ft 43 kts 33°
2026-04-29 12:41 51.45215 5.37667 143 ft 66 kts 41°
2026-04-29 12:41 51.45598 5.38114 317 ft 71 kts 39°
2026-04-29 12:42 51.46037 5.38550 472 ft 77 kts 42°
2026-04-29 12:42 51.46501 5.39093 614 ft 84 kts 45°
2026-04-29 12:42 51.47043 5.39462 800 ft 93 kts 15°
2026-04-29 12:42 51.47605 5.38847 1073 ft 112 kts 305°
2026-04-29 12:43 51.47526 5.37601 1165 ft 126 kts 227°
2026-04-29 12:43 51.46837 5.36692 1226 ft 134 kts 209°
2026-04-29 12:43 51.46085 5.35727 1225 ft 145 kts 217°
2026-04-29 12:43 51.45665 5.34302 1343 ft 144 kts 274°
2026-04-29 12:44 51.45893 5.32756 1329 ft 141 kts 295°
2026-04-29 12:44 51.46294 5.31365 1294 ft 137 kts 308°
2026-04-29 12:44 51.46748 5.30017 1227 ft 135 kts 308°
2026-04-29 12:44 51.47255 5.28741 1195 ft 136 kts 311°
2026-04-29 12:45 51.47822 5.27553 1210 ft 131 kts 322°
2026-04-29 12:45 51.48528 5.26703 1172 ft 121 kts 350°
2026-04-29 12:45 51.49288 5.26412 1188 ft 111 kts
2026-04-29 12:45 51.50063 5.26318 1090 ft 113 kts
2026-04-29 12:46 51.50845 5.26250 1050 ft 107 kts 17°
2026-04-29 12:46 51.51430 5.26740 1062 ft 94 kts 51°
2026-04-29 12:46 51.51829 5.27556 1038 ft 94 kts 59°
2026-04-29 12:46 51.52166 5.28449 1044 ft 96 kts 63°
2026-04-29 12:47 51.52559 5.29331 1004 ft 96 kts 62°
2026-04-29 12:47 51.52891 5.30263 997 ft 99 kts 64°
2026-04-29 12:47 51.53188 5.31242 990 ft 97 kts 67°
2026-04-29 12:47 51.53692 5.31964 963 ft 102 kts 33°
2026-04-29 12:48 51.54389 5.32059 1080 ft 101 kts 11°
2026-04-29 12:48 51.55105 5.32071 1111 ft 105 kts 13°
2026-04-29 12:48 51.55823 5.32014 1183 ft 104 kts
2026-04-29 12:48 51.56544 5.31834 1193 ft 107 kts
2026-04-29 12:49 51.57285 5.31697 1221 ft 105 kts
2026-04-29 12:49 51.58043 5.31623 1200 ft 115 kts
2026-04-29 12:49 51.58810 5.31268 1301 ft 114 kts 355°
2026-04-29 12:49 51.59585 5.30959 1257 ft 118 kts 355°
2026-04-29 12:50 51.60377 5.30666 1191 ft 120 kts
2026-04-29 12:50 51.61189 5.30491 1119 ft 113 kts
2026-04-29 12:50 51.61955 5.30450 1016 ft 107 kts 11°
2026-04-29 12:50 51.62645 5.30417 898 ft 94 kts 13°
2026-04-29 12:51 51.63265 5.30427 877 ft 82 kts 14°
2026-04-29 12:51 51.63811 5.30435 919 ft 74 kts 15°
2026-04-29 12:51 51.64334 5.30426 986 ft 79 kts 18°
2026-04-29 12:51 51.64899 5.29974 952 ft 110 kts 311°
2026-04-29 12:52 51.65180 5.28786 872 ft 130 kts 256°
2026-04-29 12:52 51.64591 5.27899 904 ft 114 kts 184°
2026-04-29 12:52 51.63979 5.28258 912 ft 85 kts 106°
2026-04-29 12:52 51.64089 5.29064 931 ft 80 kts 83°
2026-04-29 12:53 51.63574 5.29531 885 ft 113 kts 177°
2026-04-29 12:53 51.62792 5.29432 909 ft 105 kts 166°
2026-04-29 12:53 51.62109 5.29673 943 ft 98 kts 148°
2026-04-29 12:53 51.61452 5.29909 1014 ft 105 kts 178°
2026-04-29 12:54 51.60729 5.29388 971 ft 118 kts 198°
2026-04-29 12:54 51.59965 5.29068 964 ft 113 kts 182°
2026-04-29 12:54 51.59172 5.28838 896 ft 119 kts 180°
2026-04-29 12:54 51.58350 5.28643 938 ft 118 kts 178°
2026-04-29 12:55 51.57563 5.28459 976 ft 113 kts 176°
2026-04-29 12:55 51.56792 5.28311 974 ft 112 kts 176°
2026-04-29 12:55 51.55985 5.28181 868 ft 118 kts 176°
2026-04-29 12:55 51.55191 5.28032 904 ft 113 kts 176°
2026-04-29 12:56 51.54427 5.27851 970 ft 108 kts 180°
2026-04-29 12:56 51.53695 5.27661 990 ft 104 kts 176°
2026-04-29 12:56 51.52991 5.27452 1040 ft 102 kts 178°
2026-04-29 12:56 51.52294 5.27182 1136 ft 105 kts 181°
2026-04-29 12:57 51.51592 5.26984 1172 ft 102 kts 166°
2026-04-29 12:57 51.50982 5.27365 1161 ft 93 kts 131°
2026-04-29 12:57 51.50460 5.28019 1153 ft 98 kts 129°
2026-04-29 12:57 51.49877 5.28649 1138 ft 103 kts 141°
2026-04-29 12:58 51.49257 5.29167 1167 ft 98 kts 135°
2026-04-29 12:58 51.48678 5.29755 1167 ft 99 kts 132°
2026-04-29 12:58 51.48135 5.30432 1159 ft 99 kts 124°
2026-04-29 12:58 51.47586 5.31140 1123 ft 103 kts 129°
2026-04-29 12:59 51.47007 5.31860 987 ft 110 kts 129°
2026-04-29 12:59 51.46414 5.32651 937 ft 109 kts 129°
2026-04-29 12:59 51.45841 5.33391 959 ft 105 kts 128°
2026-04-29 12:59 51.45158 5.33829 1036 ft 124 kts 177°
2026-04-29 13:00 51.44444 5.32919 1076 ft 135 kts 223°
2026-04-29 13:00 51.43674 5.32430 883 ft 110 kts 158°
2026-04-29 13:00 51.43159 5.33056 687 ft 79 kts 104°
2026-04-29 13:00 51.43034 5.33874 558 ft 74 kts 88°
2026-04-29 13:01 51.43086 5.34660 512 ft 69 kts 75°
2026-04-29 13:01 51.43346 5.35337 428 ft 67 kts 62°
2026-04-29 13:01 51.43610 5.35868 271 ft 65 kts 46°
2026-04-29 13:01 51.43976 5.36287 100 ft 62 kts 43°
2026-04-29 13:02 51.44279 5.36629 67 ft 40 kts 45°
2026-04-29 13:02 51.44543 5.36915 71 ft 62 kts 40°
2026-04-29 13:02 51.44933 5.37355 160 ft 74 kts 40°
2026-04-29 13:02 51.45389 5.37849 254 ft 83 kts 36°
2026-04-29 13:03 51.45880 5.38295 415 ft 77 kts 44°
2026-04-29 13:03 51.46304 5.38868 489 ft 81 kts 43°
2026-04-29 13:03 51.46804 5.38973 816 ft 82 kts 357°
2026-04-29 13:03 51.47275 5.38339 1034 ft 102 kts 307°
2026-04-29 13:04 51.47241 5.37181 1249 ft 108 kts 238°
2026-04-29 13:04 51.46751 5.36263 1278 ft 116 kts 202°
2026-04-29 13:04 51.46063 5.35475 1266 ft 127 kts 210°
2026-04-29 13:04 51.45319 5.34621 1134 ft 135 kts 208°
2026-04-29 13:05 51.44556 5.33733 1046 ft 134 kts 212°
2026-04-29 13:05 51.43784 5.33113 1042 ft 114 kts 175°
2026-04-29 13:05 51.43124 5.33397 975 ft 85 kts 134°
2026-04-29 13:05 51.42772 5.34066 688 ft 76 kts 99°
2026-04-29 13:06 51.42791 5.34699 534 ft 53 kts 65°
2026-04-29 13:06 51.43033 5.35171 419 ft 57 kts 53°
2026-04-29 13:06 51.43350 5.35640 295 ft 65 kts 44°
2026-04-29 13:06 51.43750 5.36032 172 ft 68 kts 43°
2026-04-29 13:07 51.44120 5.36446 82 ft 61 kts 46°
2026-04-29 13:07 51.44436 5.36806 66 ft 46 kts 49°
2026-04-29 13:07 51.44631 5.37033 66 ft 33 kts 35°
2026-04-29 13:07 51.44835 5.37243 67 ft 37 kts 38°
2026-04-29 13:08 51.45028 5.37470 68 ft 34 kts 34°
2026-04-29 13:08 51.45224 5.37690 63 ft 37 kts 33°
2026-04-29 13:08 51.45366 5.37841 69 ft 15 kts 26°
2026-04-29 13:08 51.45412 5.37801 71 ft 8 kts 304°
2026-04-29 13:09 51.45426 5.37766 70 ft 0 kts 305°
2026-04-29 13:09 51.45439 5.37736 69 ft 0 kts 278°
2026-04-29 13:09 51.45444 5.37719 69 ft 2 kts 308°
2026-04-29 13:09 51.45468 5.37681 69 ft 6 kts 297°
2026-04-29 13:10 51.45507 5.37595 64 ft 17 kts 305°
2026-04-29 13:10 51.45558 5.37471 69 ft 9 kts 301°
2026-04-29 13:10 51.45606 5.37386 69 ft 6 kts 18°
2026-04-29 13:10 51.45630 5.37447 66 ft 9 kts 64°
2026-04-29 13:11 51.45659 5.37529 69 ft 6 kts 57°
2026-04-29 13:11 51.45698 5.37619 69 ft 9 kts 57°
2026-04-29 13:11 51.45746 5.37723 68 ft 6 kts 29°
2026-04-29 13:11 51.45762 5.37731 68 ft 0 kts 37°
2026-04-29 13:12 51.45765 5.37742 68 ft 0 kts 73°